Rechercher aéroport 
image banner adimage banner adimage banner ad
image banner ad

2CN2 - Dept Of Water And Power Granada Hills

Situé à Los Angeles, United States

ICAO - 2CN2, IATA -

Données fournies par Airmate  

Information générale

Coordonnées: N34°17'32" W118°28'29"
Élévation : 1124 feet MSL.
 
Voir autres Aéroports à California

Données opérationnelles

Special qualification required
Heure actuelle UTC:
Heure actuelle locale:
Météo à : KWHP - Whiteman ( 7 km )
METAR: KWHP 251450Z 00000KT 6SM HZ SKC 19/16 A3003
Voir NOTAMs / SUP AIP / TFR affectant cet aéroport [VIEW]
Fréquences de communication: [VIEW]

Pistes:

Coordonnées de l'aéroport

Adresse: Los Angeles United States

Vue satellite de 2CN2